Terminal Aerodrome Forecast
Issued by NWS

Home | Current Version | Previous Version | Text Only | Print | Product List | Glossary On
Versions: 1 2 3 4 5 6 7 8 9 10 11 12 13 14 15
000
FTUS43 KICT 190500
TAFSLN
TAF
KSLN 190520Z 1906/2006 13010KT P6SM SCT013
      TEMPO 1906/1909 BKN013
     FM190900 15008KT 5SM BR BKN010
     FM191500 19010KT P6SM SKC
     FM191800 19015G23KT P6SM SKC
     FM200100 18011KT P6SM SCT250=

USA.gov is the U.S. government's official web portal to all federal, state and local government web resources and services.